createdAt,value
2018-11-11T00:00:36.405Z,43.80
2018-11-11T00:01:36.383Z,43.90
2018-11-11T00:02:36.359Z,43.90
2018-11-11T00:03:36.334Z,43.80
2018-11-11T00:04:36.309Z,43.80
2018-11-11T00:05:36.285Z,43.80
2018-11-11T00:06:36.261Z,43.13
2018-11-11T00:07:36.242Z,42.85
2018-11-11T00:08:36.213Z,42.85
2018-11-11T00:09:36.189Z,42.37
2018-11-11T00:10:36.170Z,42.58
2018-11-11T00:11:36.142Z,42.28
2018-11-11T00:12:36.117Z,42.40
2018-11-11T00:13:36.094Z,42.58
2018-11-11T00:14:36.070Z,43.04
2018-11-11T00:15:36.050Z,42.49
2018-11-11T00:16:36.023Z,42.76
2018-11-11T00:17:35.999Z,41.25
2018-11-11T00:18:35.975Z,39.63
2018-11-11T00:19:35.950Z,38.96
2018-11-11T00:20:35.927Z,38.96
2018-11-11T00:21:35.971Z,38.20
2018-11-11T00:22:35.878Z,37.92
2018-11-11T00:23:35.854Z,37.54
2018-11-11T00:24:35.830Z,37.54
2018-11-11T00:25:35.805Z,36.96
2018-11-11T00:26:35.782Z,36.68
2018-11-11T00:27:35.759Z,36.77
2018-11-11T00:28:35.760Z,37.15
2018-11-11T00:29:35.710Z,37.06
2018-11-11T00:30:35.686Z,37.73
2018-11-11T00:31:35.663Z,37.63
2018-11-11T00:32:35.639Z,37.44
2018-11-11T00:33:35.615Z,37.34
2018-11-11T00:34:35.591Z,37.34
2018-11-11T00:35:35.568Z,37.73
2018-11-11T00:36:35.543Z,37.73
2018-11-11T00:37:35.519Z,38.20
2018-11-11T00:38:35.494Z,37.92
2018-11-11T00:39:35.514Z,37.82
2018-11-11T00:40:35.448Z,37.82
2018-11-11T00:41:35.423Z,37.82
2018-11-11T00:42:35.399Z,37.82
2018-11-11T00:43:35.376Z,37.92
2018-11-11T00:44:35.352Z,37.82
2018-11-11T00:45:35.328Z,37.44
2018-11-11T00:46:35.304Z,37.54
2018-11-11T00:47:35.280Z,37.92
2018-11-11T00:48:35.258Z,37.54
2018-11-11T00:49:35.232Z,37.44
2018-11-11T00:50:35.208Z,37.44
2018-11-11T00:51:35.188Z,37.25
2018-11-11T00:52:35.160Z,37.06
2018-11-11T00:53:35.136Z,36.58
2018-11-11T00:54:35.113Z,36.20
2018-11-11T00:55:35.090Z,36.58
2018-11-11T00:56:35.066Z,36.96
2018-11-11T00:57:35.041Z,37.06
2018-11-11T00:58:35.017Z,36.77
2018-11-11T00:59:34.994Z,37.15
2018-11-11T01:00:34.970Z,37.15
2018-11-11T01:01:34.946Z,36.96
2018-11-11T01:02:34.922Z,37.25
2018-11-11T01:03:34.899Z,37.06
2018-11-11T01:04:34.875Z,37.44
2018-11-11T01:05:34.851Z,37.54
2018-11-11T01:06:34.827Z,37.82
2018-11-11T01:07:34.804Z,37.34
2018-11-11T01:08:34.780Z,37.25
2018-11-11T01:09:34.759Z,37.06
2018-11-11T01:10:34.734Z,36.68
2018-11-11T01:11:34.710Z,36.49
2018-11-11T01:12:34.686Z,36.39
2018-11-11T01:13:34.663Z,36.20
2018-11-11T01:14:34.642Z,36.01
2018-11-11T01:15:34.615Z,35.72
2018-11-11T01:16:34.591Z,35.53
2018-11-11T01:17:34.567Z,34.77
2018-11-11T01:18:34.543Z,34.87
2018-11-11T01:19:34.521Z,34.48
2018-11-11T01:20:34.496Z,34.77
2018-11-11T01:21:34.472Z,34.77
2018-11-11T01:22:34.448Z,34.48
2018-11-11T01:23:34.425Z,34.39
2018-11-11T01:24:34.402Z,34.58
2018-11-11T01:25:34.380Z,34.87
2018-11-11T01:26:34.355Z,34.77
2018-11-11T01:27:34.332Z,34.58
2018-11-11T01:28:34.307Z,34.20
2018-11-11T01:29:34.284Z,33.72
2018-11-11T01:30:34.259Z,33.34
2018-11-11T01:31:34.237Z,33.06
2018-11-11T01:32:34.211Z,32.87
2018-11-11T01:33:34.191Z,32.58
2018-11-11T01:34:34.165Z,32.96
2018-11-11T01:35:34.142Z,32.68
2018-11-11T01:36:34.117Z,32.20
2018-11-11T01:37:34.096Z,32.20
2018-11-11T01:38:34.128Z,31.92
2018-11-11T01:39:34.047Z,31.72
2018-11-11T01:40:34.025Z,32.20
2018-11-11T01:41:33.998Z,32.20
2018-11-11T01:42:33.975Z,32.48
2018-11-11T01:43:33.952Z,32.77
2018-11-11T01:44:33.927Z,32.68
2018-11-11T01:45:33.906Z,32.77
2018-11-11T01:46:33.881Z,32.48
2018-11-11T01:47:33.856Z,32.68
2018-11-11T01:48:33.831Z,32.58
2018-11-11T01:49:33.808Z,32.29
2018-11-11T01:50:33.785Z,32.87
2018-11-11T01:51:33.761Z,32.58
2018-11-11T01:52:33.737Z,31.82
2018-11-11T01:53:33.713Z,31.92
2018-11-11T01:54:33.691Z,31.34
2018-11-11T01:55:33.666Z,30.77
2018-11-11T01:56:33.644Z,30.49
2018-11-11T01:57:33.619Z,30.68
2018-11-11T01:58:33.596Z,29.72
2018-11-11T01:59:33.572Z,29.44
2018-11-11T02:00:33.553Z,29.25
2018-11-11T02:01:33.524Z,29.05
2018-11-11T02:02:33.500Z,28.67
2018-11-11T02:03:33.486Z,28.20
2018-11-11T02:04:33.453Z,28.01
2018-11-11T02:05:33.429Z,27.91
2018-11-11T02:06:33.409Z,26.86
2018-11-11T02:07:33.382Z,27.06
2018-11-11T02:08:33.358Z,26.29
2018-11-11T02:09:33.364Z,26.39
2018-11-11T02:10:33.311Z,26.29
2018-11-11T02:11:33.287Z,26.48
2018-11-11T02:12:33.263Z,26.67
2018-11-11T02:13:33.241Z,26.39
2018-11-11T02:14:33.215Z,26.48
2018-11-11T02:15:33.190Z,26.20
2018-11-11T02:16:33.167Z,26.10
2018-11-11T02:17:33.143Z,26.20
2018-11-11T02:18:33.121Z,26.39
2018-11-11T02:19:33.096Z,26.20
2018-11-11T02:20:33.071Z,26.39
2018-11-11T02:21:33.087Z,26.29
2018-11-11T02:22:33.025Z,25.53
2018-11-11T02:23:33.001Z,25.82
2018-11-11T02:24:32.976Z,25.53
2018-11-11T02:25:32.952Z,25.43
2018-11-11T02:26:32.929Z,25.62
2018-11-11T02:27:32.905Z,25.53
2018-11-11T02:28:32.881Z,25.53
2018-11-11T02:29:32.857Z,25.82
2018-11-11T02:30:32.836Z,25.05
2018-11-11T02:31:32.810Z,25.43
2018-11-11T02:32:32.785Z,25.91
2018-11-11T02:33:32.763Z,26.58
2018-11-11T02:34:32.742Z,27.14
2018-11-11T02:35:32.717Z,26.96
2018-11-11T02:36:32.692Z,26.95
2018-11-11T02:37:33.477Z,26.58
2018-11-11T02:38:32.643Z,26.47
2018-11-11T02:39:32.620Z,25.72
2018-11-11T02:40:32.599Z,25.24
2018-11-11T02:41:32.571Z,24.57
2018-11-11T02:42:32.551Z,24.47
2018-11-11T02:43:32.524Z,24.38
2018-11-11T02:44:32.498Z,24.76
2018-11-11T02:45:32.474Z,24.47
2018-11-11T02:46:32.451Z,24.28
2018-11-11T02:47:32.427Z,24.38
2018-11-11T02:48:32.401Z,24.85
2018-11-11T02:49:32.377Z,25.13
2018-11-11T02:50:32.358Z,24.76
2018-11-11T02:51:32.331Z,24.47
2018-11-11T02:52:32.305Z,24.47
2018-11-11T02:53:32.282Z,24.66
2018-11-11T02:54:32.258Z,24.76
2018-11-11T02:55:32.234Z,25.13
2018-11-11T02:56:32.209Z,25.13
2018-11-11T02:57:32.184Z,25.42
2018-11-11T02:58:32.163Z,25.61
2018-11-11T02:59:32.139Z,25.42
2018-11-11T03:00:32.113Z,25.81
2018-11-11T03:01:32.088Z,26.09
2018-11-11T03:02:32.063Z,26.47
2018-11-11T03:03:32.040Z,26.66
2018-11-11T03:04:32.028Z,26.09
2018-11-11T03:05:31.992Z,25.71
2018-11-11T03:06:31.966Z,25.13
2018-11-11T03:07:31.942Z,24.57
2018-11-11T03:08:31.918Z,24.28
2018-11-11T03:09:31.896Z,25.23
2018-11-11T03:10:31.869Z,24.66
2018-11-11T03:11:31.847Z,24.85
2018-11-11T03:12:31.821Z,24.47
2018-11-11T03:13:31.795Z,24.18
2018-11-11T03:14:31.774Z,24.47
2018-11-11T03:15:31.747Z,23.71
2018-11-11T03:16:31.722Z,23.71
2018-11-11T03:17:31.698Z,24.38
2018-11-11T03:18:31.675Z,23.80
2018-11-11T03:19:31.651Z,23.61
2018-11-11T03:20:32.376Z,23.71
2018-11-11T03:21:31.607Z,23.23
2018-11-11T03:22:31.577Z,23.71
2018-11-11T03:23:31.554Z,23.71
2018-11-11T03:24:31.528Z,23.61
2018-11-11T03:25:31.507Z,23.61
2018-11-11T03:26:31.480Z,23.04
2018-11-11T03:27:31.455Z,22.56
2018-11-11T03:28:31.430Z,21.99
2018-11-11T03:29:31.407Z,21.90
2018-11-11T03:30:31.383Z,21.90
2018-11-11T03:31:32.109Z,21.80
2018-11-11T03:32:31.333Z,22.66
2018-11-11T03:33:31.310Z,22.47
2018-11-11T03:34:31.289Z,22.28
2018-11-11T03:35:31.261Z,22.66
2018-11-11T03:36:31.238Z,22.75
2018-11-11T03:37:31.213Z,22.85
2018-11-11T03:38:31.190Z,22.85
2018-11-11T03:39:31.165Z,23.42
2018-11-11T03:40:31.140Z,23.61
2018-11-11T03:41:31.116Z,22.28
2018-11-11T03:42:31.092Z,20.95
2018-11-11T03:43:31.068Z,21.04
2018-11-11T03:44:31.045Z,21.23
2018-11-11T03:45:31.019Z,21.14
2018-11-11T03:46:30.994Z,21.14
2018-11-11T03:47:30.973Z,21.33
2018-11-11T03:48:30.951Z,21.71
2018-11-11T03:49:30.921Z,22.28
2018-11-11T03:50:30.897Z,22.66
2018-11-11T03:51:30.873Z,23.42
2018-11-11T03:52:30.849Z,23.71
2018-11-11T03:53:30.830Z,23.90
2018-11-11T03:54:30.803Z,23.99
2018-11-11T03:55:30.779Z,23.42
2018-11-11T03:56:30.752Z,23.61
2018-11-11T03:57:32.230Z,23.33
2018-11-11T03:58:30.721Z,22.75
2018-11-11T03:59:30.683Z,22.47
2018-11-11T04:00:30.656Z,21.80
2018-11-11T04:01:30.632Z,21.90
2018-11-11T04:02:30.607Z,21.99
2018-11-11T04:03:30.583Z,21.99
2018-11-11T04:04:30.560Z,21.80
2018-11-11T04:05:30.535Z,22.47
2018-11-11T04:06:30.511Z,22.75
2018-11-11T04:07:30.487Z,22.85
2018-11-11T04:08:30.462Z,22.75
2018-11-11T04:09:30.438Z,22.66
2018-11-11T04:10:30.465Z,22.56
2018-11-11T04:11:30.398Z,22.28
2018-11-11T04:12:30.365Z,22.56
2018-11-11T04:13:30.342Z,22.47
2018-11-11T04:14:30.342Z,22.47
2018-11-11T04:15:30.294Z,22.47
2018-11-11T04:16:30.269Z,22.09
2018-11-11T04:17:30.246Z,21.99
2018-11-11T04:18:30.223Z,21.90
2018-11-11T04:19:30.949Z,21.80
2018-11-11T04:20:30.177Z,21.99
2018-11-11T04:21:30.149Z,21.71
2018-11-11T04:22:30.125Z,21.90
2018-11-11T04:23:30.101Z,21.80
2018-11-11T04:24:30.077Z,21.99
2018-11-11T04:25:30.052Z,22.28
2018-11-11T04:26:30.028Z,22.28
2018-11-11T04:27:30.004Z,22.38
2018-11-11T04:28:29.979Z,22.56
2018-11-11T04:29:29.956Z,23.04
2018-11-11T04:30:29.936Z,22.28
2018-11-11T04:31:29.909Z,21.71
2018-11-11T04:32:29.884Z,21.23
2018-11-11T04:33:29.861Z,20.95
2018-11-11T04:34:29.836Z,21.33
2018-11-11T04:35:29.822Z,20.95
2018-11-11T04:36:29.788Z,21.42
2018-11-11T04:37:29.764Z,21.71
2018-11-11T04:38:29.741Z,21.51
2018-11-11T04:39:29.716Z,21.33
2018-11-11T04:40:29.691Z,21.80
2018-11-11T04:41:29.667Z,21.61
2018-11-11T04:42:29.643Z,21.04
2018-11-11T04:43:29.620Z,20.76
2018-11-11T04:44:29.596Z,20.56
2018-11-11T04:45:29.571Z,20.09
2018-11-11T04:46:29.556Z,19.71
2018-11-11T04:47:29.527Z,19.61
2018-11-11T04:48:29.498Z,19.61
2018-11-11T04:49:29.475Z,19.71
2018-11-11T04:50:29.453Z,19.71
2018-11-11T04:51:29.427Z,19.81
2018-11-11T04:52:29.405Z,19.42
2018-11-11T04:53:29.379Z,19.23
2018-11-11T04:54:29.355Z,19.33
2018-11-11T04:55:29.332Z,19.13
2018-11-11T04:56:29.307Z,19.52
2018-11-11T04:57:29.282Z,19.13
2018-11-11T04:58:29.258Z,18.66
2018-11-11T04:59:29.237Z,18.47
2018-11-11T05:00:29.209Z,18.28
2018-11-11T05:01:29.196Z,18.09
2018-11-11T05:02:29.163Z,18.38
2018-11-11T05:03:29.140Z,18.18
2018-11-11T05:04:29.177Z,18.28
2018-11-11T05:05:29.090Z,18.47
2018-11-11T05:06:29.065Z,17.99
2018-11-11T05:07:29.042Z,18.47
2018-11-11T05:08:29.017Z,18.28
2018-11-11T05:09:29.034Z,18.28
2018-11-11T05:10:28.969Z,17.71
2018-11-11T05:11:28.945Z,18.01
2018-11-11T05:12:28.919Z,17.99
2018-11-11T05:13:28.897Z,18.28
2018-11-11T05:14:28.872Z,17.81
2018-11-11T05:15:28.848Z,17.81
2018-11-11T05:16:28.825Z,18.19
2018-11-11T05:17:28.799Z,18.19
2018-11-11T05:18:28.775Z,18.19
2018-11-11T05:19:28.753Z,18.57
2018-11-11T05:20:28.727Z,18.85
2018-11-11T05:21:28.703Z,18.96
2018-11-11T05:22:28.679Z,19.05
2018-11-11T05:23:28.656Z,19.24
2018-11-11T05:24:28.632Z,19.33
2018-11-11T05:25:28.610Z,18.95
2018-11-11T05:26:28.583Z,20.39
2018-11-11T05:27:28.560Z,21.05
2018-11-11T05:28:28.534Z,21.72
2018-11-11T05:29:28.511Z,21.15
2018-11-11T05:30:28.487Z,20.76
2018-11-11T05:31:28.464Z,20.86
2018-11-11T05:32:28.439Z,20.96
2018-11-11T05:33:28.415Z,20.66
2018-11-11T05:34:28.392Z,19.62
2018-11-11T05:35:28.367Z,20.00
2018-11-11T05:36:28.343Z,19.24
2018-11-11T05:37:28.322Z,19.05
2018-11-11T05:38:28.297Z,18.38
2018-11-11T05:39:29.023Z,18.38
2018-11-11T05:40:28.250Z,18.10
2018-11-11T05:41:28.224Z,18.01
2018-11-11T05:42:28.201Z,18.01
2018-11-11T05:43:28.177Z,17.72
2018-11-11T05:44:28.153Z,17.24
2018-11-11T05:45:28.131Z,17.14
2018-11-11T05:46:28.104Z,17.24
2018-11-11T05:47:28.081Z,17.14
2018-11-11T05:48:28.058Z,17.14
2018-11-11T05:49:28.033Z,17.14
2018-11-11T05:50:28.010Z,17.05
2018-11-11T05:51:27.986Z,16.86
2018-11-11T05:52:27.963Z,16.29
2018-11-11T05:53:27.937Z,16.67
2018-11-11T05:54:27.913Z,16.29
2018-11-11T05:55:27.889Z,17.05
2018-11-11T05:56:27.865Z,17.24
2018-11-11T05:57:27.841Z,16.86
2018-11-11T05:58:27.817Z,16.96
2018-11-11T05:59:27.795Z,17.24
2018-11-11T06:00:27.769Z,17.62
2018-11-11T06:01:27.746Z,18.10
2018-11-11T06:02:27.723Z,17.81
2018-11-11T06:03:27.708Z,18.10
2018-11-11T06:04:27.674Z,18.29
2018-11-11T06:05:27.649Z,18.01
2018-11-11T06:06:27.626Z,18.57
2018-11-11T06:07:27.606Z,18.48
2018-11-11T06:08:27.607Z,18.96
2018-11-11T06:09:27.555Z,19.05
2018-11-11T06:10:27.531Z,18.96
2018-11-11T06:11:27.508Z,19.15
2018-11-11T06:12:27.485Z,19.24
2018-11-11T06:13:27.458Z,19.34
2018-11-11T06:14:27.435Z,19.34
2018-11-11T06:15:27.412Z,19.24
2018-11-11T06:16:27.387Z,19.53
2018-11-11T06:17:27.365Z,19.05
2018-11-11T06:18:27.341Z,19.24
2018-11-11T06:19:27.317Z,19.24
2018-11-11T06:20:27.291Z,19.24
2018-11-11T06:21:27.276Z,19.43
2018-11-11T06:22:27.248Z,19.34
2018-11-11T06:23:27.223Z,19.34
2018-11-11T06:24:27.195Z,19.15
2018-11-11T06:25:27.173Z,19.05
2018-11-11T06:26:27.149Z,20.57
2018-11-11T06:27:27.896Z,21.24
2018-11-11T06:28:27.099Z,21.44
2018-11-11T06:29:27.075Z,22.58
2018-11-11T06:30:27.053Z,23.63
2018-11-11T06:31:27.027Z,24.58
2018-11-11T06:32:27.004Z,25.34
2018-11-11T06:33:26.980Z,26.86
2018-11-11T06:34:26.956Z,27.91
2018-11-11T06:35:26.932Z,28.39
2018-11-11T06:36:26.912Z,29.36
2018-11-11T06:37:26.884Z,29.74
2018-11-11T06:38:26.861Z,30.87
2018-11-11T06:39:26.837Z,31.92
2018-11-11T06:40:26.813Z,32.68
2018-11-11T06:41:26.789Z,33.15
2018-11-11T06:42:26.763Z,33.25
2018-11-11T06:43:26.741Z,33.25
2018-11-11T06:44:26.716Z,32.87
2018-11-11T06:45:26.691Z,33.06
2018-11-11T06:46:26.668Z,30.49
2018-11-11T06:47:26.645Z,28.29
2018-11-11T06:48:26.618Z,27.15
2018-11-11T06:49:26.596Z,26.77
2018-11-11T06:50:26.576Z,26.58
2018-11-11T06:51:26.547Z,26.29
2018-11-11T06:52:26.522Z,25.42
2018-11-11T06:53:26.499Z,25.52
2018-11-11T06:54:26.475Z,24.87
2018-11-11T06:55:26.452Z,25.13
2018-11-11T06:56:26.426Z,24.47
2018-11-11T06:57:26.402Z,23.71
2018-11-11T06:58:26.378Z,23.80
2018-11-11T06:59:26.354Z,23.43
2018-11-11T07:00:26.334Z,24.09
2018-11-11T07:01:26.304Z,24.58
2018-11-11T07:02:26.281Z,23.91
2018-11-11T07:03:26.255Z,23.42
2018-11-11T07:04:26.231Z,23.24
2018-11-11T07:05:26.207Z,23.34
2018-11-11T07:06:26.182Z,23.43
2018-11-11T07:07:26.181Z,23.43
2018-11-11T07:08:26.134Z,23.43
2018-11-11T07:09:26.110Z,23.24
2018-11-11T07:10:26.088Z,23.63
2018-11-11T07:11:26.063Z,23.63
2018-11-11T07:12:26.038Z,24.48
2018-11-11T07:13:26.016Z,24.58
2018-11-11T07:14:26.005Z,24.68
2018-11-11T07:15:25.965Z,25.16
2018-11-11T07:16:25.945Z,26.29
2018-11-11T07:17:25.918Z,26.50
2018-11-11T07:18:25.893Z,27.73
2018-11-11T07:19:25.871Z,28.50
2018-11-11T07:20:25.845Z,29.45
2018-11-11T07:21:25.822Z,30.88
2018-11-11T07:22:25.797Z,31.74
2018-11-11T07:23:25.793Z,31.55
2018-11-11T07:24:25.753Z,32.98
2018-11-11T07:25:25.725Z,34.41
2018-11-11T07:26:25.700Z,34.79
2018-11-11T07:27:25.677Z,35.36
2018-11-11T07:28:25.652Z,35.74
2018-11-11T07:29:25.628Z,35.84
2018-11-11T07:30:25.605Z,35.93
2018-11-11T07:31:25.603Z,35.55
2018-11-11T07:32:25.560Z,35.74
2018-11-11T07:33:25.534Z,35.36
2018-11-11T07:34:25.512Z,35.95
2018-11-11T07:35:25.485Z,36.03
2018-11-11T07:36:29.216Z,36.14
2018-11-11T07:37:25.440Z,37.55
2018-11-11T07:38:25.417Z,36.98
2018-11-11T07:39:25.393Z,37.29
2018-11-11T07:40:25.367Z,38.22
2018-11-11T07:41:25.344Z,39.08
2018-11-11T07:42:25.418Z,38.12
2018-11-11T07:43:25.298Z,38.70
2018-11-11T07:44:25.273Z,38.60
2018-11-11T07:45:25.251Z,40.12
2018-11-11T07:46:25.226Z,40.41
2018-11-11T07:47:25.203Z,39.94
2018-11-11T07:48:25.178Z,39.56
2018-11-11T07:49:25.154Z,39.27
2018-11-11T07:50:25.131Z,39.08
2018-11-11T07:51:25.107Z,39.75
2018-11-11T07:52:25.083Z,39.56
2018-11-11T07:53:25.063Z,39.84
2018-11-11T07:54:25.036Z,40.32
2018-11-11T07:55:25.013Z,40.12
2018-11-11T07:56:24.988Z,40.32
2018-11-11T07:57:24.964Z,40.41
2018-11-11T07:58:26.497Z,40.15
2018-11-11T07:59:24.920Z,39.65
2018-11-11T08:00:24.893Z,38.24
2018-11-11T08:01:24.917Z,38.05
2018-11-11T08:02:24.852Z,38.15
2018-11-11T08:03:24.820Z,37.10
2018-11-11T08:04:25.547Z,36.81
2018-11-11T08:05:24.772Z,36.62
2018-11-11T08:06:24.750Z,35.66
2018-11-11T08:07:24.724Z,35.86
2018-11-11T08:08:24.699Z,36.81
2018-11-11T08:09:24.677Z,37.19
2018-11-11T08:10:24.653Z,36.90
2018-11-11T08:11:24.628Z,36.71
2018-11-11T08:12:24.603Z,36.24
2018-11-11T08:13:24.578Z,36.71
2018-11-11T08:14:24.554Z,36.24
2018-11-11T08:15:24.530Z,36.71
2018-11-11T08:16:24.506Z,36.60
2018-11-11T08:17:24.481Z,36.03
2018-11-11T08:18:24.457Z,36.03
2018-11-11T08:19:24.434Z,34.98
2018-11-11T08:20:24.409Z,34.22
2018-11-11T08:21:24.385Z,33.74
2018-11-11T08:22:24.361Z,33.55
2018-11-11T08:23:24.337Z,33.09
2018-11-11T08:24:24.310Z,32.88
2018-11-11T08:25:24.302Z,33.00
2018-11-11T08:26:24.263Z,32.90
2018-11-11T08:27:24.238Z,32.71
2018-11-11T08:28:24.216Z,32.32
2018-11-11T08:29:24.197Z,31.85
2018-11-11T08:30:24.166Z,30.71
2018-11-11T08:31:24.143Z,29.37
2018-11-11T08:32:24.196Z,29.75
2018-11-11T08:33:24.094Z,29.37
2018-11-11T08:34:24.071Z,30.04
2018-11-11T08:35:24.046Z,29.86
2018-11-11T08:36:24.028Z,29.75
2018-11-11T08:37:23.998Z,30.32
2018-11-11T08:38:23.974Z,30.72
2018-11-11T08:39:23.951Z,30.63
2018-11-11T08:40:24.005Z,31.09
2018-11-11T08:41:23.903Z,31.47
2018-11-11T08:42:23.880Z,31.47
2018-11-11T08:43:23.857Z,31.28
2018-11-11T08:44:23.832Z,28.89
2018-11-11T08:45:23.809Z,26.70
2018-11-11T08:46:23.785Z,26.03
2018-11-11T08:47:23.761Z,26.70
2018-11-11T08:48:23.820Z,26.70
2018-11-11T08:49:23.713Z,26.70
2018-11-11T08:50:23.691Z,26.79
2018-11-11T08:51:23.668Z,25.94
2018-11-11T08:52:23.653Z,25.08
2018-11-11T08:53:23.620Z,25.18
2018-11-11T08:54:23.596Z,25.08
2018-11-11T08:55:23.572Z,24.69
2018-11-11T08:56:23.548Z,24.32
2018-11-11T08:57:23.528Z,23.93
2018-11-11T08:58:23.578Z,23.74
2018-11-11T08:59:23.479Z,23.74
2018-11-11T09:00:23.454Z,23.46
2018-11-11T09:01:23.432Z,23.57
2018-11-11T09:02:23.409Z,23.66
2018-11-11T09:03:23.384Z,23.18
2018-11-11T09:04:23.361Z,22.61
2018-11-11T09:05:23.338Z,22.42
2018-11-11T09:06:23.316Z,22.04
2018-11-11T09:07:23.295Z,22.89
2018-11-11T09:08:23.268Z,22.89
2018-11-11T09:09:23.247Z,22.42
2018-11-11T09:10:23.221Z,22.80
2018-11-11T09:11:23.246Z,23.38
2018-11-11T09:12:24.675Z,23.38
2018-11-11T09:13:23.153Z,24.04
2018-11-11T09:14:23.129Z,23.66
2018-11-11T09:15:23.107Z,22.99
2018-11-11T09:16:23.082Z,22.33
2018-11-11T09:17:23.064Z,22.33
2018-11-11T09:18:23.037Z,23.38
2018-11-11T09:19:23.014Z,24.34
2018-11-11T09:20:22.990Z,27.30
2018-11-11T09:21:23.017Z,28.06
2018-11-11T09:22:22.945Z,27.20
2018-11-11T09:23:22.925Z,26.54
2018-11-11T09:24:22.905Z,26.73
2018-11-11T09:25:22.900Z,29.30
2018-11-11T09:26:22.854Z,29.59
2018-11-11T09:27:22.832Z,30.74
2018-11-11T09:28:22.809Z,30.93
2018-11-11T09:29:22.808Z,31.98
2018-11-11T09:30:22.882Z,31.98
2018-11-11T09:31:22.743Z,30.07
2018-11-11T09:32:22.722Z,30.64
2018-11-11T09:33:22.697Z,31.60
2018-11-11T09:34:22.674Z,32.07
2018-11-11T09:35:22.729Z,32.26
2018-11-11T09:36:22.629Z,32.93
2018-11-11T09:37:22.606Z,33.03
2018-11-11T09:38:22.584Z,32.26
2018-11-11T09:39:22.562Z,31.21
2018-11-11T09:40:22.539Z,30.93
2018-11-11T09:41:22.517Z,31.60
2018-11-11T09:42:22.509Z,33.70
2018-11-11T09:43:22.472Z,33.50
2018-11-11T09:44:22.451Z,32.36
2018-11-11T09:45:22.428Z,35.41
2018-11-11T09:46:22.405Z,35.89
2018-11-11T09:47:22.384Z,34.94
2018-11-11T09:48:22.361Z,40.95
2018-11-11T09:49:22.338Z,40.76
2018-11-11T09:50:22.316Z,37.99
2018-11-11T09:51:23.795Z,38.47
2018-11-11T09:52:22.271Z,37.04
2018-11-11T09:53:22.248Z,36.08
2018-11-11T09:54:22.226Z,37.90
2018-11-11T09:55:22.204Z,40.47
2018-11-11T09:56:22.182Z,39.25
2018-11-11T09:57:24.412Z,41.45
2018-11-11T09:58:22.143Z,47.85
2018-11-11T09:59:22.115Z,49.95
2018-11-11T10:00:22.092Z,56.04
2018-11-11T10:01:22.070Z,53.08
2018-11-11T10:02:22.049Z,50.71
2018-11-11T10:03:23.527Z,52.53
2018-11-11T10:04:22.070Z,52.91
2018-11-11T10:05:21.981Z,54.82
2018-11-11T10:06:22.011Z,52.53
2018-11-11T10:07:21.937Z,62.18
2018-11-11T10:08:21.915Z,62.84
2018-11-11T10:09:24.145Z,65.67
2018-11-11T10:10:21.871Z,69.02
2018-11-11T10:11:21.849Z,73.60
2018-11-11T10:12:21.888Z,74.08
2018-11-11T10:13:21.807Z,73.50
2018-11-11T10:14:21.783Z,68.73
2018-11-11T10:15:21.815Z,69.21
2018-11-11T10:16:21.739Z,69.24
2018-11-11T10:17:21.716Z,74.74
2018-11-11T10:18:21.695Z,73.88
2018-11-11T10:19:21.674Z,70.87
2018-11-11T10:20:21.753Z,71.12
2018-11-11T10:21:21.629Z,69.15
2018-11-11T10:22:21.607Z,67.81
2018-11-11T10:23:21.585Z,65.61
2018-11-11T10:24:21.562Z,63.99
2018-11-11T10:25:21.540Z,59.44
2018-11-11T10:26:25.273Z,57.90
2018-11-11T10:27:21.511Z,57.90
2018-11-11T10:28:21.475Z,65.07
2018-11-11T10:29:21.498Z,70.14
2018-11-11T10:30:21.432Z,70.52
2018-11-11T10:31:21.411Z,71.38
2018-11-11T10:32:21.387Z,66.79
2018-11-11T10:33:21.368Z,67.55
2018-11-11T10:34:21.346Z,63.64
2018-11-11T10:35:21.374Z,62.49
2018-11-11T10:36:21.306Z,66.03
2018-11-11T10:37:21.363Z,69.85
2018-11-11T10:38:21.262Z,70.61
2018-11-11T10:39:21.321Z,72.53
2018-11-11T10:40:21.219Z,67.08
2018-11-11T10:41:21.192Z,71.19
2018-11-11T10:42:21.177Z,70.84
2018-11-11T10:43:21.902Z,61.76
2018-11-11T10:44:21.186Z,69.79
2018-11-11T10:45:21.108Z,70.65
2018-11-11T10:46:21.087Z,77.06
2018-11-11T10:47:21.064Z,72.02
2018-11-11T10:48:21.042Z,73.65
2018-11-11T10:49:21.023Z,75.09
2018-11-11T10:50:21.004Z,83.12
2018-11-11T10:51:20.989Z,83.89
2018-11-11T10:52:20.957Z,94.41
2018-11-11T10:53:20.936Z,88.48
2018-11-11T10:54:21.687Z,84.98
2018-11-11T10:55:20.895Z,89.86
2018-11-11T10:56:20.875Z,92.06
2018-11-11T10:57:20.853Z,88.71
2018-11-11T10:58:20.835Z,89.72
2018-11-11T10:59:20.811Z,92.97
2018-11-11T11:00:20.859Z,95.36
2018-11-11T11:01:20.769Z,93.84
2018-11-11T11:02:20.750Z,92.88
2018-11-11T11:03:20.730Z,92.78
2018-11-11T11:04:20.707Z,96.13
2018-11-11T11:05:20.687Z,97.66
2018-11-11T11:06:20.666Z,96.61
2018-11-11T11:07:20.646Z,95.94
2018-11-11T11:08:20.628Z,92.49
2018-11-11T11:09:20.603Z,94.02
2018-11-11T11:10:20.584Z,91.39
2018-11-11T11:11:20.563Z,91.39
2018-11-11T11:12:20.540Z,92.25
2018-11-11T11:13:20.628Z,95.22
2018-11-11T11:14:20.503Z,96.47
2018-11-11T11:15:20.480Z,94.26
2018-11-11T11:16:20.456Z,92.74
2018-11-11T11:17:20.435Z,91.59
2018-11-11T11:18:20.417Z,91.39
2018-11-11T11:19:20.394Z,89.77
2018-11-11T11:20:20.372Z,91.39
2018-11-11T11:21:20.350Z,96.75
2018-11-11T11:22:20.331Z,96.94
2018-11-11T11:23:20.309Z,94.07
2018-11-11T11:24:20.286Z,93.45
2018-11-11T11:25:20.265Z,92.78
2018-11-11T11:26:20.246Z,93.84
2018-11-11T11:27:20.325Z,93.93
2018-11-11T11:28:20.201Z,93.55
2018-11-11T11:29:20.180Z,94.60
2018-11-11T11:30:20.159Z,98.33
2018-11-11T11:31:20.189Z,96.03
2018-11-11T11:32:20.866Z,93.07
2018-11-11T11:33:20.093Z,94.02
2018-11-11T11:34:20.071Z,96.03
2018-11-11T11:35:20.143Z,96.51
2018-11-11T11:36:20.028Z,97.28
2018-11-11T11:37:20.009Z,96.80
2018-11-11T11:38:20.116Z,96.13
2018-11-11T11:39:19.965Z,96.89
2018-11-11T11:40:19.942Z,97.18
2018-11-11T11:41:19.945Z,97.28
2018-11-11T11:42:19.901Z,98.24
2018-11-11T11:43:20.628Z,98.14
2018-11-11T11:44:19.855Z,97.95
2018-11-11T11:45:19.833Z,97.75
2018-11-11T11:46:19.811Z,99.99
2018-11-11T11:47:19.851Z,97.37
2018-11-11T11:48:19.768Z,98.43
2018-11-11T11:49:19.747Z,99.43
2018-11-11T11:50:19.737Z,98.95
2018-11-11T11:51:19.704Z,99.24
2018-11-11T11:52:19.728Z,98.95
2018-11-11T11:53:19.663Z,99.52
2018-11-11T11:54:19.640Z,99.99
2018-11-11T11:55:19.616Z,99.99
2018-11-11T11:56:19.595Z,97.95
2018-11-11T11:57:19.573Z,99.57
2018-11-11T11:58:19.551Z,98.90
2018-11-11T11:59:19.530Z,98.33
2018-11-11T12:00:19.507Z,98.90
2018-11-11T12:01:19.485Z,99.57
2018-11-11T12:02:19.636Z,99.99
2018-11-11T12:03:19.441Z,99.99
2018-11-11T12:04:19.420Z,99.76
2018-11-11T12:05:19.398Z,99.76
2018-11-11T12:06:19.379Z,99.99
2018-11-11T12:07:19.355Z,99.99
2018-11-11T12:08:19.381Z,99.99
2018-11-11T12:09:19.427Z,99.99
2018-11-11T12:10:19.289Z,99.99
2018-11-11T12:11:19.267Z,99.99
2018-11-11T12:12:19.244Z,99.99
2018-11-11T12:13:19.222Z,99.99
2018-11-11T12:14:19.200Z,99.38
2018-11-11T12:15:19.179Z,99.91
2018-11-11T12:16:19.215Z,99.91
2018-11-11T12:17:19.145Z,99.72
2018-11-11T12:18:19.113Z,99.99
2018-11-11T12:19:19.091Z,99.99
2018-11-11T12:20:19.070Z,99.99
2018-11-11T12:21:19.047Z,99.99
2018-11-11T12:22:19.026Z,98.66
2018-11-11T12:23:19.065Z,99.99
2018-11-11T12:24:18.983Z,99.99
2018-11-11T12:25:18.960Z,99.99
2018-11-11T12:26:18.943Z,99.99
2018-11-11T12:27:18.917Z,99.99
2018-11-11T12:28:18.895Z,99.99
2018-11-11T12:29:18.874Z,99.99
2018-11-11T12:30:18.891Z,99.99
2018-11-11T12:31:18.831Z,99.91
2018-11-11T12:32:18.808Z,99.91
2018-11-11T12:33:18.791Z,99.99
2018-11-11T12:34:18.766Z,99.99
2018-11-11T12:35:18.744Z,99.99
2018-11-11T12:36:20.226Z,99.99
2018-11-11T12:37:18.700Z,99.99
2018-11-11T12:38:18.682Z,99.99
2018-11-11T12:39:18.811Z,99.99
2018-11-11T12:40:18.856Z,99.99
2018-11-11T12:41:18.614Z,99.99
2018-11-11T12:42:18.597Z,99.99
2018-11-11T12:43:18.625Z,99.99
2018-11-11T12:44:18.550Z,99.99
2018-11-11T12:45:18.530Z,99.99
2018-11-11T12:46:18.508Z,99.99
2018-11-11T12:47:18.486Z,99.99
2018-11-11T12:48:18.465Z,99.99
2018-11-11T12:49:18.444Z,99.99
2018-11-11T12:50:18.507Z,99.99
2018-11-11T12:51:18.401Z,99.99
2018-11-11T12:52:18.382Z,99.99